sensor_id;sensor_type;location;lat;lon;timestamp;P1;durP1;ratioP1;P2;durP2;ratioP2
8462;SDS011;4268;52.506;13.462;2024-01-11T00:01:22;12.43;;;9.90;;
8462;SDS011;4268;52.506;13.462;2024-01-11T00:03:48;13.10;;;10.90;;
8462;SDS011;4268;52.506;13.462;2024-01-11T00:06:13;12.57;;;10.50;;
8462;SDS011;4268;52.506;13.462;2024-01-11T00:08:39;13.70;;;10.93;;
8462;SDS011;4268;52.506;13.462;2024-01-11T00:11:04;12.40;;;10.50;;
8462;SDS011;4268;52.506;13.462;2024-01-11T00:13:30;14.47;;;10.63;;
8462;SDS011;4268;52.506;13.462;2024-01-11T00:15:55;12.07;;;10.17;;
8462;SDS011;4268;52.506;13.462;2024-01-11T00:18:21;12.47;;;10.80;;
8462;SDS011;4268;52.506;13.462;2024-01-11T00:20:46;12.27;;;9.70;;
8462;SDS011;4268;52.506;13.462;2024-01-11T00:23:12;13.47;;;10.90;;
8462;SDS011;4268;52.506;13.462;2024-01-11T00:25:37;13.93;;;11.13;;
8462;SDS011;4268;52.506;13.462;2024-01-11T00:28:03;12.97;;;10.50;;
8462;SDS011;4268;52.506;13.462;2024-01-11T00:30:29;13.23;;;10.33;;
8462;SDS011;4268;52.506;13.462;2024-01-11T00:32:54;11.90;;;10.63;;
8462;SDS011;4268;52.506;13.462;2024-01-11T00:35:20;14.97;;;11.47;;
8462;SDS011;4268;52.506;13.462;2024-01-11T00:37:45;15.37;;;11.73;;
8462;SDS011;4268;52.506;13.462;2024-01-11T00:40:11;13.50;;;11.33;;
8462;SDS011;4268;52.506;13.462;2024-01-11T00:42:36;15.03;;;11.33;;
8462;SDS011;4268;52.506;13.462;2024-01-11T00:45:02;13.23;;;10.80;;
8462;SDS011;4268;52.506;13.462;2024-01-11T00:47:28;12.67;;;10.30;;
8462;SDS011;4268;52.506;13.462;2024-01-11T00:49:53;12.53;;;10.30;;
8462;SDS011;4268;52.506;13.462;2024-01-11T00:52:19;12.10;;;10.07;;
8462;SDS011;4268;52.506;13.462;2024-01-11T00:54:44;12.80;;;10.30;;
8462;SDS011;4268;52.506;13.462;2024-01-11T00:57:10;11.20;;;9.00;;
8462;SDS011;4268;52.506;13.462;2024-01-11T00:59:35;10.77;;;8.87;;
8462;SDS011;4268;52.506;13.462;2024-01-11T01:02:01;9.97;;;8.40;;
8462;SDS011;4268;52.506;13.462;2024-01-11T01:04:26;10.33;;;8.93;;
8462;SDS011;4268;52.506;13.462;2024-01-11T01:06:52;9.73;;;8.50;;
8462;SDS011;4268;52.506;13.462;2024-01-11T01:09:17;10.13;;;8.57;;
8462;SDS011;4268;52.506;13.462;2024-01-11T01:11:43;13.03;;;10.07;;
8462;SDS011;4268;52.506;13.462;2024-01-11T01:14:08;11.27;;;9.23;;
8462;SDS011;4268;52.506;13.462;2024-01-11T01:16:34;11.57;;;9.33;;
8462;SDS011;4268;52.506;13.462;2024-01-11T01:18:59;11.13;;;9.10;;
8462;SDS011;4268;52.506;13.462;2024-01-11T01:21:25;10.67;;;9.27;;
8462;SDS011;4268;52.506;13.462;2024-01-11T01:23:50;10.93;;;9.20;;
8462;SDS011;4268;52.506;13.462;2024-01-11T01:26:16;10.23;;;9.00;;
8462;SDS011;4268;52.506;13.462;2024-01-11T01:28:41;10.97;;;9.27;;
8462;SDS011;4268;52.506;13.462;2024-01-11T01:31:07;10.93;;;9.10;;
8462;SDS011;4268;52.506;13.462;2024-01-11T01:33:33;9.53;;;8.53;;
8462;SDS011;4268;52.506;13.462;2024-01-11T01:35:58;11.57;;;9.30;;
8462;SDS011;4268;52.506;13.462;2024-01-11T01:38:24;14.53;;;13.17;;
8462;SDS011;4268;52.506;13.462;2024-01-11T01:40:49;11.13;;;9.37;;
8462;SDS011;4268;52.506;13.462;2024-01-11T01:43:15;10.43;;;8.83;;
8462;SDS011;4268;52.506;13.462;2024-01-11T01:45:41;10.10;;;8.87;;
8462;SDS011;4268;52.506;13.462;2024-01-11T01:48:06;10.67;;;9.17;;
8462;SDS011;4268;52.506;13.462;2024-01-11T01:50:32;12.50;;;9.60;;
8462;SDS011;4268;52.506;13.462;2024-01-11T01:52:58;11.40;;;9.50;;
8462;SDS011;4268;52.506;13.462;2024-01-11T01:55:25;12.13;;;10.23;;
8462;SDS011;4268;52.506;13.462;2024-01-11T01:57:51;10.67;;;9.33;;
8462;SDS011;4268;52.506;13.462;2024-01-11T02:00:18;12.20;;;8.83;;
8462;SDS011;4268;52.506;13.462;2024-01-11T02:02:44;12.23;;;10.03;;
8462;SDS011;4268;52.506;13.462;2024-01-11T02:05:11;12.40;;;9.67;;
8462;SDS011;4268;52.506;13.462;2024-01-11T02:07:38;11.17;;;9.37;;
8462;SDS011;4268;52.506;13.462;2024-01-11T02:10:04;11.43;;;10.23;;
8462;SDS011;4268;52.506;13.462;2024-01-11T02:12:31;11.97;;;10.03;;
8462;SDS011;4268;52.506;13.462;2024-01-11T02:14:59;12.90;;;10.23;;
8462;SDS011;4268;52.506;13.462;2024-01-11T02:17:25;12.97;;;9.13;;
8462;SDS011;4268;52.506;13.462;2024-01-11T02:19:50;12.37;;;9.77;;
8462;SDS011;4268;52.506;13.462;2024-01-11T02:22:19;12.90;;;9.70;;
8462;SDS011;4268;52.506;13.462;2024-01-11T02:24:49;13.73;;;10.07;;
8462;SDS011;4268;52.506;13.462;2024-01-11T02:27:14;13.70;;;9.57;;
8462;SDS011;4268;52.506;13.462;2024-01-11T02:29:40;12.10;;;9.70;;
8462;SDS011;4268;52.506;13.462;2024-01-11T02:32:05;12.37;;;9.47;;
8462;SDS011;4268;52.506;13.462;2024-01-11T02:34:31;13.73;;;9.90;;
8462;SDS011;4268;52.506;13.462;2024-01-11T02:36:58;13.20;;;9.97;;
8462;SDS011;4268;52.506;13.462;2024-01-11T02:39:23;14.70;;;9.90;;
8462;SDS011;4268;52.506;13.462;2024-01-11T02:41:50;14.67;;;9.83;;
8462;SDS011;4268;52.506;13.462;2024-01-11T02:44:17;13.43;;;9.80;;
8462;SDS011;4268;52.506;13.462;2024-01-11T02:46:43;13.27;;;9.43;;
8462;SDS011;4268;52.506;13.462;2024-01-11T02:49:08;14.83;;;9.57;;
8462;SDS011;4268;52.506;13.462;2024-01-11T02:51:34;18.90;;;10.43;;
8462;SDS011;4268;52.506;13.462;2024-01-11T02:54:00;13.47;;;10.37;;
8462;SDS011;4268;52.506;13.462;2024-01-11T02:56:26;14.77;;;10.43;;
8462;SDS011;4268;52.506;13.462;2024-01-11T02:58:51;16.17;;;10.97;;
8462;SDS011;4268;52.506;13.462;2024-01-11T03:01:17;14.50;;;9.80;;
8462;SDS011;4268;52.506;13.462;2024-01-11T03:03:42;14.23;;;10.63;;
8462;SDS011;4268;52.506;13.462;2024-01-11T03:06:08;14.63;;;10.33;;
8462;SDS011;4268;52.506;13.462;2024-01-11T03:08:33;12.23;;;9.70;;
8462;SDS011;4268;52.506;13.462;2024-01-11T03:10:59;14.10;;;10.27;;
8462;SDS011;4268;52.506;13.462;2024-01-11T03:13:24;14.57;;;10.23;;
8462;SDS011;4268;52.506;13.462;2024-01-11T03:15:50;13.90;;;10.30;;
8462;SDS011;4268;52.506;13.462;2024-01-11T03:18:16;13.17;;;9.97;;
8462;SDS011;4268;52.506;13.462;2024-01-11T03:20:41;12.43;;;9.20;;
8462;SDS011;4268;52.506;13.462;2024-01-11T03:23:07;13.40;;;10.40;;
8462;SDS011;4268;52.506;13.462;2024-01-11T03:25:32;12.20;;;9.20;;
8462;SDS011;4268;52.506;13.462;2024-01-11T03:27:58;13.67;;;9.70;;
8462;SDS011;4268;52.506;13.462;2024-01-11T03:30:24;11.97;;;9.63;;
8462;SDS011;4268;52.506;13.462;2024-01-11T03:32:49;13.33;;;9.87;;
8462;SDS011;4268;52.506;13.462;2024-01-11T03:35:15;12.83;;;9.77;;
8462;SDS011;4268;52.506;13.462;2024-01-11T03:37:40;13.03;;;9.40;;
8462;SDS011;4268;52.506;13.462;2024-01-11T03:40:06;13.60;;;10.07;;
8462;SDS011;4268;52.506;13.462;2024-01-11T03:42:32;15.03;;;10.30;;
8462;SDS011;4268;52.506;13.462;2024-01-11T03:44:57;13.07;;;9.70;;
8462;SDS011;4268;52.506;13.462;2024-01-11T03:47:23;14.00;;;9.87;;
8462;SDS011;4268;52.506;13.462;2024-01-11T03:49:48;13.60;;;9.73;;
8462;SDS011;4268;52.506;13.462;2024-01-11T03:52:14;13.53;;;10.67;;
8462;SDS011;4268;52.506;13.462;2024-01-11T03:54:39;12.90;;;9.60;;
8462;SDS011;4268;52.506;13.462;2024-01-11T03:57:05;13.20;;;10.07;;
8462;SDS011;4268;52.506;13.462;2024-01-11T03:59:31;12.20;;;9.13;;
8462;SDS011;4268;52.506;13.462;2024-01-11T04:01:57;12.77;;;9.30;;
8462;SDS011;4268;52.506;13.462;2024-01-11T04:04:24;11.23;;;9.20;;
8462;SDS011;4268;52.506;13.462;2024-01-11T04:06:50;12.47;;;9.43;;
8462;SDS011;4268;52.506;13.462;2024-01-11T04:09:16;12.70;;;9.13;;
8462;SDS011;4268;52.506;13.462;2024-01-11T04:11:42;14.33;;;9.57;;
8462;SDS011;4268;52.506;13.462;2024-01-11T04:14:07;12.20;;;8.97;;
8462;SDS011;4268;52.506;13.462;2024-01-11T04:16:33;10.90;;;9.13;;
8462;SDS011;4268;52.506;13.462;2024-01-11T04:18:59;11.30;;;9.00;;
8462;SDS011;4268;52.506;13.462;2024-01-11T04:21:25;12.40;;;9.10;;
8462;SDS011;4268;52.506;13.462;2024-01-11T04:23:54;12.60;;;9.33;;
8462;SDS011;4268;52.506;13.462;2024-01-11T04:26:23;14.63;;;9.67;;
8462;SDS011;4268;52.506;13.462;2024-01-11T04:28:49;12.93;;;9.47;;
8462;SDS011;4268;52.506;13.462;2024-01-11T04:31:15;14.90;;;9.87;;
8462;SDS011;4268;52.506;13.462;2024-01-11T04:33:42;13.70;;;9.63;;
8462;SDS011;4268;52.506;13.462;2024-01-11T04:36:11;14.93;;;9.97;;
8462;SDS011;4268;52.506;13.462;2024-01-11T04:38:37;14.80;;;9.87;;
8462;SDS011;4268;52.506;13.462;2024-01-11T04:41:07;13.17;;;9.07;;
8462;SDS011;4268;52.506;13.462;2024-01-11T04:43:42;14.10;;;9.83;;
8462;SDS011;4268;52.506;13.462;2024-01-11T04:46:27;17.00;;;10.43;;
8462;SDS011;4268;52.506;13.462;2024-01-11T04:48:52;14.00;;;9.93;;
8462;SDS011;4268;52.506;13.462;2024-01-11T04:51:19;13.27;;;9.73;;
8462;SDS011;4268;52.506;13.462;2024-01-11T04:53:45;15.37;;;10.43;;
8462;SDS011;4268;52.506;13.462;2024-01-11T04:56:13;14.43;;;9.63;;
8462;SDS011;4268;52.506;13.462;2024-01-11T04:58:40;14.17;;;10.30;;
8462;SDS011;4268;52.506;13.462;2024-01-11T05:01:07;15.10;;;9.97;;
8462;SDS011;4268;52.506;13.462;2024-01-11T05:03:37;14.53;;;9.83;;
8462;SDS011;4268;52.506;13.462;2024-01-11T05:06:02;17.60;;;10.73;;
8462;SDS011;4268;52.506;13.462;2024-01-11T05:08:28;13.70;;;9.87;;
8462;SDS011;4268;52.506;13.462;2024-01-11T05:10:54;15.33;;;10.17;;
8462;SDS011;4268;52.506;13.462;2024-01-11T05:13:20;14.37;;;9.90;;
8462;SDS011;4268;52.506;13.462;2024-01-11T05:15:46;17.40;;;10.33;;
8462;SDS011;4268;52.506;13.462;2024-01-11T05:18:12;15.20;;;10.23;;
8462;SDS011;4268;52.506;13.462;2024-01-11T05:20:38;17.90;;;10.30;;
8462;SDS011;4268;52.506;13.462;2024-01-11T05:23:04;15.03;;;10.20;;
8462;SDS011;4268;52.506;13.462;2024-01-11T05:25:30;18.03;;;11.20;;
8462;SDS011;4268;52.506;13.462;2024-01-11T05:27:58;19.67;;;11.63;;
8462;SDS011;4268;52.506;13.462;2024-01-11T05:30:24;15.73;;;10.73;;
8462;SDS011;4268;52.506;13.462;2024-01-11T05:32:50;15.03;;;10.50;;
8462;SDS011;4268;52.506;13.462;2024-01-11T05:35:15;16.63;;;10.53;;
8462;SDS011;4268;52.506;13.462;2024-01-11T05:37:41;19.20;;;12.10;;
8462;SDS011;4268;52.506;13.462;2024-01-11T05:40:07;19.27;;;11.90;;
8462;SDS011;4268;52.506;13.462;2024-01-11T05:42:33;19.00;;;12.00;;
8462;SDS011;4268;52.506;13.462;2024-01-11T05:44:58;19.10;;;12.20;;
8462;SDS011;4268;52.506;13.462;2024-01-11T05:47:24;20.67;;;11.90;;
8462;SDS011;4268;52.506;13.462;2024-01-11T05:49:49;19.23;;;12.23;;
8462;SDS011;4268;52.506;13.462;2024-01-11T05:52:16;17.70;;;11.00;;
8462;SDS011;4268;52.506;13.462;2024-01-11T05:54:41;19.00;;;12.30;;
8462;SDS011;4268;52.506;13.462;2024-01-11T05:57:07;17.20;;;10.83;;
8462;SDS011;4268;52.506;13.462;2024-01-11T05:59:32;18.90;;;12.40;;
8462;SDS011;4268;52.506;13.462;2024-01-11T06:01:58;19.73;;;12.33;;
8462;SDS011;4268;52.506;13.462;2024-01-11T06:04:25;16.40;;;11.17;;
8462;SDS011;4268;52.506;13.462;2024-01-11T06:06:51;21.63;;;12.57;;
8462;SDS011;4268;52.506;13.462;2024-01-11T06:09:17;20.00;;;12.63;;
8462;SDS011;4268;52.506;13.462;2024-01-11T06:11:42;19.13;;;12.13;;
8462;SDS011;4268;52.506;13.462;2024-01-11T06:14:08;21.13;;;13.03;;
8462;SDS011;4268;52.506;13.462;2024-01-11T06:16:34;20.63;;;12.67;;
8462;SDS011;4268;52.506;13.462;2024-01-11T06:18:59;22.70;;;13.63;;
8462;SDS011;4268;52.506;13.462;2024-01-11T06:21:25;20.17;;;13.10;;
8462;SDS011;4268;52.506;13.462;2024-01-11T06:23:50;21.63;;;12.70;;
8462;SDS011;4268;52.506;13.462;2024-01-11T06:26:16;21.57;;;14.17;;
8462;SDS011;4268;52.506;13.462;2024-01-11T06:28:42;22.63;;;13.60;;
8462;SDS011;4268;52.506;13.462;2024-01-11T06:31:09;21.57;;;13.90;;
8462;SDS011;4268;52.506;13.462;2024-01-11T06:33:35;21.40;;;13.43;;
8462;SDS011;4268;52.506;13.462;2024-01-11T06:36:02;24.67;;;14.20;;
8462;SDS011;4268;52.506;13.462;2024-01-11T06:38:30;22.87;;;13.33;;
8462;SDS011;4268;52.506;13.462;2024-01-11T06:40:55;21.97;;;13.77;;
8462;SDS011;4268;52.506;13.462;2024-01-11T06:43:21;21.97;;;12.80;;
8462;SDS011;4268;52.506;13.462;2024-01-11T06:45:47;24.17;;;16.03;;
8462;SDS011;4268;52.506;13.462;2024-01-11T06:48:12;22.03;;;14.23;;
8462;SDS011;4268;52.506;13.462;2024-01-11T06:50:38;25.20;;;15.23;;
8462;SDS011;4268;52.506;13.462;2024-01-11T06:53:03;22.27;;;13.97;;
8462;SDS011;4268;52.506;13.462;2024-01-11T06:55:29;23.47;;;14.67;;
8462;SDS011;4268;52.506;13.462;2024-01-11T06:57:55;22.50;;;13.83;;
8462;SDS011;4268;52.506;13.462;2024-01-11T07:00:20;22.87;;;13.57;;
8462;SDS011;4268;52.506;13.462;2024-01-11T07:02:46;22.30;;;14.07;;
8462;SDS011;4268;52.506;13.462;2024-01-11T07:05:12;27.27;;;19.87;;
8462;SDS011;4268;52.506;13.462;2024-01-11T07:07:37;25.57;;;16.40;;
8462;SDS011;4268;52.506;13.462;2024-01-11T07:10:03;23.57;;;14.33;;
8462;SDS011;4268;52.506;13.462;2024-01-11T07:12:30;21.77;;;17.30;;
8462;SDS011;4268;52.506;13.462;2024-01-11T07:14:56;23.23;;;18.50;;
8462;SDS011;4268;52.506;13.462;2024-01-11T07:17:21;22.17;;;13.87;;
8462;SDS011;4268;52.506;13.462;2024-01-11T07:19:48;23.40;;;14.40;;
8462;SDS011;4268;52.506;13.462;2024-01-11T07:22:13;25.37;;;14.73;;
8462;SDS011;4268;52.506;13.462;2024-01-11T07:24:39;25.00;;;19.50;;
8462;SDS011;4268;52.506;13.462;2024-01-11T07:27:05;23.47;;;14.77;;
8462;SDS011;4268;52.506;13.462;2024-01-11T07:29:31;25.20;;;16.23;;
8462;SDS011;4268;52.506;13.462;2024-01-11T07:31:57;24.63;;;15.33;;
8462;SDS011;4268;52.506;13.462;2024-01-11T07:34:22;21.23;;;14.43;;
8462;SDS011;4268;52.506;13.462;2024-01-11T07:36:49;25.30;;;15.17;;
8462;SDS011;4268;52.506;13.462;2024-01-11T07:39:15;26.53;;;16.20;;
8462;SDS011;4268;52.506;13.462;2024-01-11T07:41:41;27.53;;;18.87;;
8462;SDS011;4268;52.506;13.462;2024-01-11T07:44:07;25.43;;;15.27;;
8462;SDS011;4268;52.506;13.462;2024-01-11T07:46:32;27.73;;;16.80;;
8462;SDS011;4268;52.506;13.462;2024-01-11T07:48:58;25.47;;;16.20;;
8462;SDS011;4268;52.506;13.462;2024-01-11T07:51:24;26.77;;;15.77;;
8462;SDS011;4268;52.506;13.462;2024-01-11T07:53:50;27.90;;;16.70;;
8462;SDS011;4268;52.506;13.462;2024-01-11T07:56:15;24.30;;;15.63;;
8462;SDS011;4268;52.506;13.462;2024-01-11T07:58:42;26.57;;;16.23;;
8462;SDS011;4268;52.506;13.462;2024-01-11T08:01:07;24.47;;;15.97;;
8462;SDS011;4268;52.506;13.462;2024-01-11T08:03:34;26.23;;;18.70;;
8462;SDS011;4268;52.506;13.462;2024-01-11T08:06:00;25.17;;;15.10;;
8462;SDS011;4268;52.506;13.462;2024-01-11T08:08:26;24.03;;;14.87;;
8462;SDS011;4268;52.506;13.462;2024-01-11T08:10:51;25.37;;;15.30;;
8462;SDS011;4268;52.506;13.462;2024-01-11T08:13:17;25.13;;;15.53;;
8462;SDS011;4268;52.506;13.462;2024-01-11T08:15:46;23.37;;;15.60;;
8462;SDS011;4268;52.506;13.462;2024-01-11T08:18:12;23.80;;;14.97;;
8462;SDS011;4268;52.506;13.462;2024-01-11T08:20:38;23.87;;;14.67;;
8462;SDS011;4268;52.506;13.462;2024-01-11T08:23:04;24.50;;;15.33;;
8462;SDS011;4268;52.506;13.462;2024-01-11T08:25:30;22.80;;;14.53;;
8462;SDS011;4268;52.506;13.462;2024-01-11T08:27:55;20.90;;;13.83;;
8462;SDS011;4268;52.506;13.462;2024-01-11T08:30:21;26.27;;;15.70;;
8462;SDS011;4268;52.506;13.462;2024-01-11T08:32:47;23.00;;;14.20;;
8462;SDS011;4268;52.506;13.462;2024-01-11T08:35:13;25.83;;;15.33;;
8462;SDS011;4268;52.506;13.462;2024-01-11T08:37:39;24.70;;;18.53;;
8462;SDS011;4268;52.506;13.462;2024-01-11T08:40:05;22.17;;;14.50;;
8462;SDS011;4268;52.506;13.462;2024-01-11T08:42:31;20.50;;;14.37;;
8462;SDS011;4268;52.506;13.462;2024-01-11T08:44:57;24.80;;;15.60;;
8462;SDS011;4268;52.506;13.462;2024-01-11T08:47:23;21.97;;;14.50;;
8462;SDS011;4268;52.506;13.462;2024-01-11T08:49:49;23.47;;;14.30;;
8462;SDS011;4268;52.506;13.462;2024-01-11T08:52:14;23.40;;;15.10;;
8462;SDS011;4268;52.506;13.462;2024-01-11T08:54:40;22.77;;;15.13;;
8462;SDS011;4268;52.506;13.462;2024-01-11T08:57:06;23.67;;;14.50;;
8462;SDS011;4268;52.506;13.462;2024-01-11T08:59:31;23.03;;;15.33;;
8462;SDS011;4268;52.506;13.462;2024-01-11T09:01:57;23.13;;;15.90;;
8462;SDS011;4268;52.506;13.462;2024-01-11T09:04:23;19.90;;;14.00;;
8462;SDS011;4268;52.506;13.462;2024-01-11T09:06:48;22.20;;;14.57;;
8462;SDS011;4268;52.506;13.462;2024-01-11T09:09:14;23.97;;;15.17;;
8462;SDS011;4268;52.506;13.462;2024-01-11T09:11:40;23.83;;;14.27;;
8462;SDS011;4268;52.506;13.462;2024-01-11T09:14:06;21.83;;;14.47;;
8462;SDS011;4268;52.506;13.462;2024-01-11T09:16:31;23.17;;;15.23;;
8462;SDS011;4268;52.506;13.462;2024-01-11T09:18:58;25.40;;;15.27;;
8462;SDS011;4268;52.506;13.462;2024-01-11T09:21:25;23.73;;;15.30;;
8462;SDS011;4268;52.506;13.462;2024-01-11T09:23:51;25.43;;;14.80;;
8462;SDS011;4268;52.506;13.462;2024-01-11T09:26:16;25.00;;;15.93;;
8462;SDS011;4268;52.506;13.462;2024-01-11T09:28:42;25.10;;;17.13;;
8462;SDS011;4268;52.506;13.462;2024-01-11T09:31:07;23.57;;;15.43;;
8462;SDS011;4268;52.506;13.462;2024-01-11T09:33:33;25.10;;;16.50;;
8462;SDS011;4268;52.506;13.462;2024-01-11T09:35:58;26.77;;;16.23;;
8462;SDS011;4268;52.506;13.462;2024-01-11T09:38:24;25.30;;;15.97;;
8462;SDS011;4268;52.506;13.462;2024-01-11T09:40:52;25.33;;;16.17;;
8462;SDS011;4268;52.506;13.462;2024-01-11T09:43:36;24.60;;;15.77;;
8462;SDS011;4268;52.506;13.462;2024-01-11T09:46:03;29.37;;;16.60;;
8462;SDS011;4268;52.506;13.462;2024-01-11T09:48:33;26.70;;;16.93;;
8462;SDS011;4268;52.506;13.462;2024-01-11T09:51:01;26.83;;;16.90;;
8462;SDS011;4268;52.506;13.462;2024-01-11T09:53:33;24.40;;;16.43;;
8462;SDS011;4268;52.506;13.462;2024-01-11T09:55:59;25.00;;;16.10;;
8462;SDS011;4268;52.506;13.462;2024-01-11T09:58:26;24.17;;;15.63;;
8462;SDS011;4268;52.506;13.462;2024-01-11T10:00:55;26.67;;;16.93;;
8462;SDS011;4268;52.506;13.462;2024-01-11T10:03:22;24.63;;;15.67;;
8462;SDS011;4268;52.506;13.462;2024-01-11T10:05:49;26.63;;;16.37;;
8462;SDS011;4268;52.506;13.462;2024-01-11T10:08:15;25.27;;;16.47;;
8462;SDS011;4268;52.506;13.462;2024-01-11T10:10:46;25.10;;;16.43;;
8462;SDS011;4268;52.506;13.462;2024-01-11T10:13:12;24.97;;;16.50;;
8462;SDS011;4268;52.506;13.462;2024-01-11T10:15:37;25.87;;;17.03;;
8462;SDS011;4268;52.506;13.462;2024-01-11T10:18:03;26.20;;;17.17;;
8462;SDS011;4268;52.506;13.462;2024-01-11T10:20:28;22.97;;;15.50;;
8462;SDS011;4268;52.506;13.462;2024-01-11T10:22:57;21.77;;;15.40;;
8462;SDS011;4268;52.506;13.462;2024-01-11T10:25:26;26.37;;;20.17;;
8462;SDS011;4268;52.506;13.462;2024-01-11T10:27:52;26.87;;;18.07;;
8462;SDS011;4268;52.506;13.462;2024-01-11T10:30:17;23.67;;;15.53;;
8462;SDS011;4268;52.506;13.462;2024-01-11T10:32:45;21.97;;;16.23;;
8462;SDS011;4268;52.506;13.462;2024-01-11T10:35:11;22.57;;;16.43;;
8462;SDS011;4268;52.506;13.462;2024-01-11T10:37:37;20.77;;;15.13;;
8462;SDS011;4268;52.506;13.462;2024-01-11T10:40:04;21.37;;;15.17;;
8462;SDS011;4268;52.506;13.462;2024-01-11T10:42:36;23.53;;;16.80;;
8462;SDS011;4268;52.506;13.462;2024-01-11T10:45:07;26.00;;;18.00;;
8462;SDS011;4268;52.506;13.462;2024-01-11T10:47:38;25.70;;;16.63;;
8462;SDS011;4268;52.506;13.462;2024-01-11T10:50:06;24.20;;;16.70;;
8462;SDS011;4268;52.506;13.462;2024-01-11T10:52:36;25.53;;;17.57;;
8462;SDS011;4268;52.506;13.462;2024-01-11T10:55:07;25.43;;;16.87;;
8462;SDS011;4268;52.506;13.462;2024-01-11T10:57:33;24.83;;;17.07;;
8462;SDS011;4268;52.506;13.462;2024-01-11T11:00:00;24.43;;;17.00;;
8462;SDS011;4268;52.506;13.462;2024-01-11T11:02:28;24.93;;;16.73;;
8462;SDS011;4268;52.506;13.462;2024-01-11T11:04:55;23.90;;;16.77;;
8462;SDS011;4268;52.506;13.462;2024-01-11T11:07:22;24.77;;;17.67;;
8462;SDS011;4268;52.506;13.462;2024-01-11T11:09:49;25.50;;;16.97;;
8462;SDS011;4268;52.506;13.462;2024-01-11T11:12:16;23.17;;;17.20;;
8462;SDS011;4268;52.506;13.462;2024-01-11T11:14:43;25.27;;;17.40;;
8462;SDS011;4268;52.506;13.462;2024-01-11T11:17:12;26.73;;;17.77;;
8462;SDS011;4268;52.506;13.462;2024-01-11T11:19:40;28.70;;;22.57;;
8462;SDS011;4268;52.506;13.462;2024-01-11T11:22:06;28.13;;;23.73;;
8462;SDS011;4268;52.506;13.462;2024-01-11T11:24:33;26.93;;;17.97;;
8462;SDS011;4268;52.506;13.462;2024-01-11T11:27:00;25.40;;;18.23;;
8462;SDS011;4268;52.506;13.462;2024-01-11T11:29:26;25.03;;;17.03;;
8462;SDS011;4268;52.506;13.462;2024-01-11T11:31:51;23.07;;;17.70;;
8462;SDS011;4268;52.506;13.462;2024-01-11T11:34:20;24.03;;;16.67;;
8462;SDS011;4268;52.506;13.462;2024-01-11T11:36:46;22.23;;;15.33;;
8462;SDS011;4268;52.506;13.462;2024-01-11T11:39:11;20.20;;;15.03;;
8462;SDS011;4268;52.506;13.462;2024-01-11T11:41:38;19.13;;;14.70;;
8462;SDS011;4268;52.506;13.462;2024-01-11T11:44:04;21.17;;;15.47;;
8462;SDS011;4268;52.506;13.462;2024-01-11T11:46:30;20.13;;;15.57;;
8462;SDS011;4268;52.506;13.462;2024-01-11T11:48:56;18.47;;;14.47;;
8462;SDS011;4268;52.506;13.462;2024-01-11T11:51:23;19.67;;;15.20;;
8462;SDS011;4268;52.506;13.462;2024-01-11T11:53:49;20.33;;;15.60;;
8462;SDS011;4268;52.506;13.462;2024-01-11T11:56:16;20.83;;;16.27;;
8462;SDS011;4268;52.506;13.462;2024-01-11T11:58:44;20.93;;;15.63;;
8462;SDS011;4268;52.506;13.462;2024-01-11T12:01:10;21.17;;;15.57;;
8462;SDS011;4268;52.506;13.462;2024-01-11T12:03:40;21.80;;;16.37;;
8462;SDS011;4268;52.506;13.462;2024-01-11T12:06:10;23.63;;;17.27;;
8462;SDS011;4268;52.506;13.462;2024-01-11T12:08:36;24.10;;;17.83;;
8462;SDS011;4268;52.506;13.462;2024-01-11T12:11:05;19.53;;;15.87;;
8462;SDS011;4268;52.506;13.462;2024-01-11T12:13:31;22.73;;;16.87;;
8462;SDS011;4268;52.506;13.462;2024-01-11T12:15:57;20.37;;;15.87;;
8462;SDS011;4268;52.506;13.462;2024-01-11T12:18:23;21.43;;;16.73;;
8462;SDS011;4268;52.506;13.462;2024-01-11T12:20:49;18.27;;;14.43;;
8462;SDS011;4268;52.506;13.462;2024-01-11T12:23:15;19.00;;;14.90;;
8462;SDS011;4268;52.506;13.462;2024-01-11T12:25:41;19.57;;;14.80;;
8462;SDS011;4268;52.506;13.462;2024-01-11T12:28:07;21.77;;;15.90;;
8462;SDS011;4268;52.506;13.462;2024-01-11T12:30:33;20.17;;;15.47;;
8462;SDS011;4268;52.506;13.462;2024-01-11T12:32:59;19.77;;;15.67;;
8462;SDS011;4268;52.506;13.462;2024-01-11T12:35:28;21.33;;;16.13;;
8462;SDS011;4268;52.506;13.462;2024-01-11T12:37:55;19.70;;;14.30;;
8462;SDS011;4268;52.506;13.462;2024-01-11T12:40:25;22.93;;;15.77;;
8462;SDS011;4268;52.506;13.462;2024-01-11T12:42:56;21.77;;;16.23;;
8462;SDS011;4268;52.506;13.462;2024-01-11T12:45:23;22.53;;;16.03;;
8462;SDS011;4268;52.506;13.462;2024-01-11T12:47:51;21.77;;;15.80;;
8462;SDS011;4268;52.506;13.462;2024-01-11T12:50:18;22.10;;;16.03;;
8462;SDS011;4268;52.506;13.462;2024-01-11T12:52:45;19.87;;;14.67;;
8462;SDS011;4268;52.506;13.462;2024-01-11T12:55:20;19.57;;;15.10;;
8462;SDS011;4268;52.506;13.462;2024-01-11T12:57:45;23.10;;;17.30;;
8462;SDS011;4268;52.506;13.462;2024-01-11T13:00:11;19.10;;;15.40;;
8462;SDS011;4268;52.506;13.462;2024-01-11T13:02:41;20.93;;;14.93;;
8462;SDS011;4268;52.506;13.462;2024-01-11T13:05:11;19.30;;;15.00;;
8462;SDS011;4268;52.506;13.462;2024-01-11T13:07:37;19.77;;;14.13;;
8462;SDS011;4268;52.506;13.462;2024-01-11T13:10:02;18.27;;;13.97;;
8462;SDS011;4268;52.506;13.462;2024-01-11T13:12:29;17.67;;;13.67;;
8462;SDS011;4268;52.506;13.462;2024-01-11T13:14:55;17.33;;;13.70;;
8462;SDS011;4268;52.506;13.462;2024-01-11T13:17:21;17.53;;;14.07;;
8462;SDS011;4268;52.506;13.462;2024-01-11T13:19:46;18.20;;;13.43;;
8462;SDS011;4268;52.506;13.462;2024-01-11T13:22:12;18.00;;;13.80;;
8462;SDS011;4268;52.506;13.462;2024-01-11T13:24:38;19.20;;;14.10;;
8462;SDS011;4268;52.506;13.462;2024-01-11T13:27:03;18.20;;;13.77;;
8462;SDS011;4268;52.506;13.462;2024-01-11T13:29:29;19.73;;;14.53;;
8462;SDS011;4268;52.506;13.462;2024-01-11T13:31:54;18.73;;;14.17;;
8462;SDS011;4268;52.506;13.462;2024-01-11T13:34:20;17.73;;;13.93;;
8462;SDS011;4268;52.506;13.462;2024-01-11T13:36:45;16.33;;;13.23;;
8462;SDS011;4268;52.506;13.462;2024-01-11T13:39:11;17.80;;;13.50;;
8462;SDS011;4268;52.506;13.462;2024-01-11T13:41:37;16.40;;;12.67;;
8462;SDS011;4268;52.506;13.462;2024-01-11T13:44:02;21.23;;;19.03;;
8462;SDS011;4268;52.506;13.462;2024-01-11T13:46:30;18.53;;;15.50;;
8462;SDS011;4268;52.506;13.462;2024-01-11T13:48:57;17.80;;;14.80;;
8462;SDS011;4268;52.506;13.462;2024-01-11T13:51:23;14.33;;;11.83;;
8462;SDS011;4268;52.506;13.462;2024-01-11T13:53:49;15.97;;;12.07;;
8462;SDS011;4268;52.506;13.462;2024-01-11T13:56:14;16.00;;;12.57;;
8462;SDS011;4268;52.506;13.462;2024-01-11T13:58:40;16.30;;;12.30;;
8462;SDS011;4268;52.506;13.462;2024-01-11T14:01:05;23.30;;;21.13;;
8462;SDS011;4268;52.506;13.462;2024-01-11T14:03:32;16.40;;;12.23;;
8462;SDS011;4268;52.506;13.462;2024-01-11T14:05:58;14.40;;;12.13;;
8462;SDS011;4268;52.506;13.462;2024-01-11T14:08:25;13.30;;;11.60;;
8462;SDS011;4268;52.506;13.462;2024-01-11T14:10:50;14.63;;;11.43;;
8462;SDS011;4268;52.506;13.462;2024-01-11T14:13:16;15.70;;;11.80;;
8462;SDS011;4268;52.506;13.462;2024-01-11T14:15:41;15.53;;;12.23;;
8462;SDS011;4268;52.506;13.462;2024-01-11T14:18:07;14.37;;;12.17;;
8462;SDS011;4268;52.506;13.462;2024-01-11T14:20:34;13.97;;;11.60;;
8462;SDS011;4268;52.506;13.462;2024-01-11T14:23:00;14.43;;;10.87;;
8462;SDS011;4268;52.506;13.462;2024-01-11T14:25:25;14.40;;;10.73;;
8462;SDS011;4268;52.506;13.462;2024-01-11T14:27:51;13.47;;;10.70;;
8462;SDS011;4268;52.506;13.462;2024-01-11T14:30:17;14.83;;;11.73;;
8462;SDS011;4268;52.506;13.462;2024-01-11T14:32:43;15.57;;;12.03;;